Time;durP1;ratioP1;P1;durP2;ratioP2;P2;SDS_P1;SDS_P2;PMS_P1;PMS_P2;Temp;Humidity;BMP_temperature;BMP_pressure;BME280_temperature;BME280_humidity;BME280_pressure;Samples;Min_cycle;Max_cycle;Signal;HPM_P1;HPM_P2
2021/07/14 00:01:38;;;;;;;45.90;43.30;;;;;;;;;;5014138;28;20960;-72
2021/07/14 00:04:05;;;;;;;43.70;41.20;;;;;;;;;;5011596;28;21150;-72
2021/07/14 00:06:32;;;;;;;44.90;42.40;;;;;;;;;;5025147;28;20452;-72
2021/07/14 00:09:00;;;;;;;43.90;41.50;;;;;;;;;;5012171;28;20450;-72
2021/07/14 00:11:29;;;;;;;44.20;41.70;;;;;;;;;;5011302;28;20445;-73
2021/07/14 00:14:14;;;;;;;45.40;43.00;;;;;;;;;;5028810;28;20508;-72
2021/07/14 00:22:20;;;;;;;45.73;43.23;;;;;;;;;;5016525;28;20460;-72
2021/07/14 00:24:48;;;;;;;46.30;43.70;;;;;;;;;;5031444;28;20465;-72
2021/07/14 00:27:15;;;;;;;45.40;42.90;;;;;;;;;;5030033;28;20452;-73
2021/07/14 00:29:49;;;;;;;44.90;42.50;;;;;;;;;;5011409;28;20443;-72
2021/07/14 00:32:16;;;;;;;48.10;45.30;;;;;;;;;;5012260;28;20457;-72
2021/07/14 00:34:43;;;;;;;48.67;45.80;;;;;;;;;;5014838;28;20481;-73
2021/07/14 00:37:11;;;;;;;47.07;44.57;;;;;;;;;;5012375;28;20847;-73
2021/07/14 00:39:38;;;;;;;48.13;45.43;;;;;;;;;;5011726;28;20493;-74
2021/07/14 00:42:07;;;;;;;47.70;45.10;;;;;;;;;;5010932;28;20458;-74
2021/07/14 00:44:34;;;;;;;48.73;46.03;;;;;;;;;;5011527;28;20466;-74
2021/07/14 00:47:02;;;;;;;46.43;43.83;;;;;;;;;;5012335;28;20461;-74
2021/07/14 00:49:29;;;;;;;47.80;45.20;;;;;;;;;;5025460;28;20449;-74
2021/07/14 00:51:56;;;;;;;48.07;45.47;;;;;;;;;;5011520;28;20949;-74
2021/07/14 00:54:23;;;;;;;49.50;46.80;;;;;;;;;;5011224;28;20548;-74
2021/07/14 00:56:51;;;;;;;49.33;46.53;;;;;;;;;;5011648;28;20466;-74
2021/07/14 00:59:20;;;;;;;51.73;48.90;;;;;;;;;;5011269;28;20449;-72
2021/07/14 01:01:47;;;;;;;53.97;51.17;;;;;;;;;;5016206;28;20437;-73
2021/07/14 01:04:16;;;;;;;53.90;51.07;;;;;;;;;;5034268;28;20496;-73
2021/07/14 01:06:52;;;;;;;54.17;51.27;;;;;;;;;;5020926;28;20960;-73
2021/07/14 01:09:19;;;;;;;57.00;54.10;;;;;;;;;;5015681;28;20993;-73
2021/07/14 01:11:47;;;;;;;54.97;51.80;;;;;;;;;;5022607;28;20436;-73
2021/07/14 01:14:21;;;;;;;55.87;52.73;;;;;;;;;;5014565;28;20471;-73
2021/07/14 01:16:53;;;;;;;58.77;55.77;;;;;;;;;;5015898;28;20534;-73
2021/07/14 01:19:26;;;;;;;60.60;57.43;;;;;;;;;;5017708;28;20799;-73
2021/07/14 01:21:55;;;;;;;62.20;59.00;;;;;;;;;;5021167;28;20941;-72
2021/07/14 01:24:25;;;;;;;63.97;60.77;;;;;;;;;;5014406;28;20475;-73
2021/07/14 01:27:07;;;;;;;64.70;61.23;;;;;;;;;;5014202;28;20449;-73
2021/07/14 01:29:37;;;;;;;62.13;58.73;;;;;;;;;;5014935;28;20961;-72
2021/07/14 01:32:05;;;;;;;65.03;61.67;;;;;;;;;;5029988;28;20453;-72
2021/07/14 01:34:33;;;;;;;66.93;63.33;;;;;;;;;;5033947;28;20472;-71
2021/07/14 01:37:01;;;;;;;64.33;60.93;;;;;;;;;;5015452;28;20455;-72
2021/07/14 01:39:29;;;;;;;65.90;62.40;;;;;;;;;;5014313;28;20452;-72
2021/07/14 01:41:57;;;;;;;66.63;63.07;;;;;;;;;;5014725;28;20890;-73
2021/07/14 01:44:26;;;;;;;67.53;63.90;;;;;;;;;;5014128;28;20472;-71
2021/07/14 01:46:58;;;;;;;71.70;68.10;;;;;;;;;;5017489;28;21055;-72
2021/07/14 01:49:25;;;;;;;68.57;65.07;;;;;;;;;;5020013;28;20503;-73
2021/07/14 01:51:55;;;;;;;65.93;62.43;;;;;;;;;;5017974;28;20460;-72
2021/07/14 01:54:23;;;;;;;68.30;64.90;;;;;;;;;;5027097;28;20479;-73
2021/07/14 01:56:50;;;;;;;67.50;64.00;;;;;;;;;;5018467;28;20548;-73
2021/07/14 01:59:18;;;;;;;69.10;65.40;;;;;;;;;;5017312;28;20800;-73
2021/07/14 02:01:46;;;;;;;67.57;64.07;;;;;;;;;;5019158;28;20481;-73
2021/07/14 02:04:31;;;;;;;65.20;61.67;;;;;;;;;;5014080;28;20560;-72
2021/07/14 02:07:00;;;;;;;67.50;64.00;;;;;;;;;;5014613;28;20438;-72
2021/07/14 02:09:27;;;;;;;68.67;65.17;;;;;;;;;;5013693;28;20806;-72
2021/07/14 02:11:56;;;;;;;67.83;64.30;;;;;;;;;;5015769;28;20464;-73
2021/07/14 02:14:26;;;;;;;75.67;71.77;;;;;;;;;;5022631;28;20491;-73
2021/07/14 02:16:53;;;;;;;74.13;70.30;;;;;;;;;;5020310;28;20472;-72
2021/07/14 02:19:22;;;;;;;74.90;70.80;;;;;;;;;;5013437;28;20453;-72
2021/07/14 02:21:50;;;;;;;71.53;67.70;;;;;;;;;;5013852;28;20563;-73
2021/07/14 02:24:17;;;;;;;66.97;63.50;;;;;;;;;;5014581;28;20476;-71
2021/07/14 02:26:44;;;;;;;74.50;70.80;;;;;;;;;;5021767;28;20453;-73
2021/07/14 02:29:12;;;;;;;78.10;74.20;;;;;;;;;;5027163;28;20459;-72
2021/07/14 02:31:39;;;;;;;70.97;67.47;;;;;;;;;;5023125;28;20454;-72
2021/07/14 02:34:09;;;;;;;69.53;65.93;;;;;;;;;;5013096;28;20525;-73
2021/07/14 02:36:38;;;;;;;70.53;66.93;;;;;;;;;;5013736;28;20456;-73
2021/07/14 02:39:07;;;;;;;66.97;63.47;;;;;;;;;;5012920;28;20987;-72
2021/07/14 02:41:39;;;;;;;65.30;61.70;;;;;;;;;;5014965;28;21095;-73
2021/07/14 02:44:08;;;;;;;67.90;64.40;;;;;;;;;;5013588;28;20552;-73
2021/07/14 02:46:36;;;;;;;64.03;60.33;;;;;;;;;;5014261;28;20496;-73
2021/07/14 02:49:06;;;;;;;61.77;58.57;;;;;;;;;;5012949;28;20462;-73
2021/07/14 02:51:34;;;;;;;62.73;59.20;;;;;;;;;;5024720;28;20448;-73
2021/07/14 02:54:04;;;;;;;59.43;56.10;;;;;;;;;;5019395;28;20477;-73
2021/07/14 02:56:32;;;;;;;59.70;56.50;;;;;;;;;;5018372;28;20457;-74
2021/07/14 02:59:02;;;;;;;59.57;56.30;;;;;;;;;;5032721;28;20451;-73
2021/07/14 03:01:30;;;;;;;63.97;60.40;;;;;;;;;;5032235;28;20515;-72
2021/07/14 03:03:58;;;;;;;62.63;59.23;;;;;;;;;;5021782;28;21027;-73
2021/07/14 03:06:26;;;;;;;61.67;58.33;;;;;;;;;;5012502;28;21075;-74
2021/07/14 03:09:02;;;;;;;61.30;58.00;;;;;;;;;;5013425;28;20953;-74
2021/07/14 03:11:31;;;;;;;60.00;56.67;;;;;;;;;;5012505;28;21015;-72
2021/07/14 03:13:58;;;;;;;61.10;57.70;;;;;;;;;;5012732;28;20993;-72
2021/07/14 03:16:26;;;;;;;61.63;58.23;;;;;;;;;;5012478;28;20457;-72
2021/07/14 03:18:53;;;;;;;60.50;57.13;;;;;;;;;;5012158;28;20825;-73
2021/07/14 03:21:20;;;;;;;59.87;56.67;;;;;;;;;;5014754;28;20492;-73
2021/07/14 03:23:47;;;;;;;61.90;58.50;;;;;;;;;;5013097;28;20482;-74
2021/07/14 03:26:16;;;;;;;61.97;58.47;;;;;;;;;;5012374;28;20824;-73
2021/07/14 03:28:44;;;;;;;62.67;59.07;;;;;;;;;;5012524;28;20457;-74
2021/07/14 03:31:13;;;;;;;60.77;57.30;;;;;;;;;;5011742;28;20452;-74
2021/07/14 03:33:40;;;;;;;65.33;61.93;;;;;;;;;;5023295;28;20457;-73
2021/07/14 03:36:08;;;;;;;57.97;54.57;;;;;;;;;;5015870;28;20925;-73
2021/07/14 03:38:36;;;;;;;59.43;56.13;;;;;;;;;;5032064;28;20944;-73
2021/07/14 03:41:03;;;;;;;56.93;53.70;;;;;;;;;;5021563;28;20487;-73
2021/07/14 03:43:31;;;;;;;58.40;55.00;;;;;;;;;;5011753;28;20457;-74
2021/07/14 03:46:00;;;;;;;59.10;55.80;;;;;;;;;;5020184;28;20459;-73
2021/07/14 03:48:29;;;;;;;57.83;54.43;;;;;;;;;;5031870;28;20456;-72
2021/07/14 03:50:57;;;;;;;59.33;56.03;;;;;;;;;;5029049;28;20885;-74
2021/07/14 03:53:24;;;;;;;60.97;57.57;;;;;;;;;;5011986;28;20487;-73
2021/07/14 03:55:52;;;;;;;59.27;55.87;;;;;;;;;;5012902;28;20452;-73
2021/07/14 03:58:20;;;;;;;61.90;58.50;;;;;;;;;;5013229;28;20458;-74
2021/07/14 04:00:49;;;;;;;65.10;61.53;;;;;;;;;;5030200;28;21079;-72
2021/07/14 04:03:21;;;;;;;64.03;60.43;;;;;;;;;;5028246;28;20467;-73
2021/07/14 04:05:50;;;;;;;65.43;61.80;;;;;;;;;;5030624;28;20495;-72
2021/07/14 04:08:19;;;;;;;69.27;65.33;;;;;;;;;;5032188;28;20477;-73
2021/07/14 04:10:46;;;;;;;69.87;66.07;;;;;;;;;;5030423;28;20452;-72
2021/07/14 04:13:13;;;;;;;69.73;65.87;;;;;;;;;;5022686;28;20450;-72
2021/07/14 04:15:40;;;;;;;65.07;61.47;;;;;;;;;;5020292;28;20841;-73
2021/07/14 04:18:08;;;;;;;69.63;65.53;;;;;;;;;;5031899;28;20459;-73
2021/07/14 04:20:38;;;;;;;64.50;60.80;;;;;;;;;;5023222;28;21138;-74
2021/07/14 04:23:05;;;;;;;66.70;63.00;;;;;;;;;;5031252;28;20453;-74
2021/07/14 04:25:33;;;;;;;68.07;63.70;;;;;;;;;;5030616;28;20468;-74
2021/07/14 04:28:00;;;;;;;62.47;58.90;;;;;;;;;;5012053;28;20957;-74
2021/07/14 04:30:27;;;;;;;63.00;59.30;;;;;;;;;;5011462;28;20459;-74
2021/07/14 04:32:54;;;;;;;58.93;55.43;;;;;;;;;;5012017;28;20461;-73
2021/07/14 04:35:21;;;;;;;57.63;54.17;;;;;;;;;;5011603;28;20508;-73
2021/07/14 04:37:50;;;;;;;57.50;54.00;;;;;;;;;;5083795;22;20521;-67
2021/07/14 04:40:18;;;;;;;56.80;53.40;;;;;;;;;;5069644;28;20509;-66
2021/07/14 04:42:45;;;;;;;57.30;53.90;;;;;;;;;;5071272;28;20856;-66
2021/07/14 04:45:12;;;;;;;60.27;56.73;;;;;;;;;;5072678;28;20469;-67
2021/07/14 04:47:39;;;;;;;58.03;54.43;;;;;;;;;;5038824;28;20482;-66
2021/07/14 04:50:07;;;;;;;58.63;55.20;;;;;;;;;;5052621;28;20954;-66
2021/07/14 04:52:34;;;;;;;59.10;55.40;;;;;;;;;;5034604;28;20455;-68
2021/07/14 04:55:02;;;;;;;57.37;53.87;;;;;;;;;;5038821;28;20463;-66
2021/07/14 04:57:30;;;;;;;60.70;56.60;;;;;;;;;;5053886;28;20472;-65
2021/07/14 04:59:57;;;;;;;61.03;56.97;;;;;;;;;;5054688;28;20452;-67
2021/07/14 05:02:24;;;;;;;61.77;57.83;;;;;;;;;;5035752;28;20998;-66
2021/07/14 05:04:51;;;;;;;59.30;55.73;;;;;;;;;;5034561;28;20452;-66
2021/07/14 05:07:18;;;;;;;62.70;58.50;;;;;;;;;;5036341;28;20483;-66
2021/07/14 05:09:45;;;;;;;60.47;56.43;;;;;;;;;;5053813;28;20827;-66
2021/07/14 05:12:13;;;;;;;57.13;53.53;;;;;;;;;;5053860;28;20451;-65
2021/07/14 05:14:41;;;;;;;57.60;53.90;;;;;;;;;;5053924;28;20819;-67
2021/07/14 05:17:08;;;;;;;59.20;55.50;;;;;;;;;;5052152;28;20482;-66
2021/07/14 05:19:35;;;;;;;57.40;53.70;;;;;;;;;;5049855;28;20463;-66
2021/07/14 05:22:02;;;;;;;59.63;55.57;;;;;;;;;;5051108;28;20489;-66
2021/07/14 05:24:29;;;;;;;55.57;51.87;;;;;;;;;;5054037;28;20452;-67
2021/07/14 05:26:56;;;;;;;58.67;54.90;;;;;;;;;;5052282;28;20845;-67
2021/07/14 05:29:25;;;;;;;59.00;55.40;;;;;;;;;;5053883;28;20448;-67
2021/07/14 05:31:52;;;;;;;56.70;53.13;;;;;;;;;;5041405;28;20856;-67
2021/07/14 05:34:19;;;;;;;56.73;53.23;;;;;;;;;;5033848;28;20820;-67
2021/07/14 05:36:46;;;;;;;56.33;52.43;;;;;;;;;;5048659;28;20482;-67
2021/07/14 05:39:14;;;;;;;56.87;53.07;;;;;;;;;;5053779;28;20452;-67
2021/07/14 05:41:41;;;;;;;64.20;59.37;;;;;;;;;;5052577;28;20479;-66
2021/07/14 05:44:08;;;;;;;74.73;70.70;;;;;;;;;;5054172;28;20447;-66
2021/07/14 05:46:37;;;;;;;60.63;56.50;;;;;;;;;;5053417;28;20838;-67
2021/07/14 05:49:04;;;;;;;61.20;56.93;;;;;;;;;;5053031;28;20806;-67
2021/07/14 05:51:32;;;;;;;62.60;57.93;;;;;;;;;;5039582;28;20460;-69
2021/07/14 05:53:59;;;;;;;61.30;56.43;;;;;;;;;;5046792;28;20471;-68
2021/07/14 05:56:26;;;;;;;64.87;60.07;;;;;;;;;;5041412;28;20487;-67
2021/07/14 05:58:53;;;;;;;60.60;56.30;;;;;;;;;;5042820;28;20450;-67
2021/07/14 06:01:21;;;;;;;66.40;62.00;;;;;;;;;;5053209;28;20482;-67
2021/07/14 06:03:49;;;;;;;65.50;61.60;;;;;;;;;;5045618;28;20465;-68
2021/07/14 06:06:17;;;;;;;67.50;63.30;;;;;;;;;;5033291;28;20479;-67
2021/07/14 06:08:44;;;;;;;63.30;59.07;;;;;;;;;;5034404;28;20461;-68
2021/07/14 06:11:11;;;;;;;65.03;60.80;;;;;;;;;;5045788;28;20454;-67
2021/07/14 06:13:39;;;;;;;72.83;68.63;;;;;;;;;;5052725;28;20456;-67
2021/07/14 06:16:07;;;;;;;64.17;59.97;;;;;;;;;;5052082;28;20479;-68
2021/07/14 06:18:35;;;;;;;62.93;58.80;;;;;;;;;;5053058;28;20507;-67
2021/07/14 06:21:03;;;;;;;72.83;68.20;;;;;;;;;;5051500;28;20962;-67
2021/07/14 06:23:30;;;;;;;64.77;60.87;;;;;;;;;;5053147;28;20454;-68
2021/07/14 06:25:57;;;;;;;68.60;64.50;;;;;;;;;;5049353;28;20455;-67
2021/07/14 06:28:24;;;;;;;64.83;60.83;;;;;;;;;;5052701;28;20957;-67
2021/07/14 06:30:52;;;;;;;70.03;65.70;;;;;;;;;;5051921;28;20451;-68
2021/07/14 06:33:21;;;;;;;68.30;64.30;;;;;;;;;;5033062;28;20451;-67
2021/07/14 06:35:48;;;;;;;70.50;66.30;;;;;;;;;;5043057;28;20956;-68
2021/07/14 06:38:17;;;;;;;72.10;67.83;;;;;;;;;;5032956;28;20457;-67
2021/07/14 06:40:44;;;;;;;70.60;66.50;;;;;;;;;;5036940;28;20951;-66
2021/07/14 06:43:15;;;;;;;63.30;59.33;;;;;;;;;;5051723;28;20490;-67
2021/07/14 06:45:43;;;;;;;68.83;64.73;;;;;;;;;;5052365;28;20448;-66
2021/07/14 06:48:10;;;;;;;75.33;70.80;;;;;;;;;;5052499;28;20843;-67
2021/07/14 06:50:37;;;;;;;98.73;92.90;;;;;;;;;;5052046;28;20547;-67
2021/07/14 06:53:04;;;;;;;100.50;94.73;;;;;;;;;;5052419;28;20961;-66
2021/07/14 06:55:33;;;;;;;94.47;89.03;;;;;;;;;;5051459;28;20799;-67
2021/07/14 06:58:00;;;;;;;97.30;91.70;;;;;;;;;;5051980;28;20475;-66
2021/07/14 07:00:27;;;;;;;96.80;91.30;;;;;;;;;;5051338;28;20474;-68
2021/07/14 07:02:54;;;;;;;114.90;108.63;;;;;;;;;;5052004;28;20498;-68
2021/07/14 07:05:21;;;;;;;118.27;111.57;;;;;;;;;;5043189;28;20947;-68
2021/07/14 07:07:48;;;;;;;103.43;97.87;;;;;;;;;;5049025;28;20471;-67
2021/07/14 07:10:16;;;;;;;103.33;97.47;;;;;;;;;;5052158;28;20542;-67
2021/07/14 07:12:44;;;;;;;118.80;112.13;;;;;;;;;;5050336;28;20456;-67
2021/07/14 07:15:13;;;;;;;112.07;106.00;;;;;;;;;;5043458;28;20471;-67
2021/07/14 07:17:40;;;;;;;102.13;96.23;;;;;;;;;;5037468;28;20478;-68
2021/07/14 07:20:08;;;;;;;95.07;89.87;;;;;;;;;;5044201;28;20979;-69
2021/07/14 07:22:35;;;;;;;89.40;82.97;;;;;;;;;;5037945;28;20479;-71
2021/07/14 07:25:02;;;;;;;96.27;90.57;;;;;;;;;;5047213;28;20452;-71
2021/07/14 07:27:34;;;;;;;92.40;87.20;;;;;;;;;;5048302;28;20479;-71
2021/07/14 07:30:03;;;;;;;81.70;77.10;;;;;;;;;;5051551;28;20518;-71
2021/07/14 07:32:30;;;;;;;94.77;89.57;;;;;;;;;;5050118;28;20446;-71
2021/07/14 07:34:57;;;;;;;97.13;91.93;;;;;;;;;;5050447;28;20459;-70
2021/07/14 07:37:24;;;;;;;89.10;83.90;;;;;;;;;;5049791;28;20502;-71
2021/07/14 07:39:51;;;;;;;93.33;88.23;;;;;;;;;;5047407;28;20479;-72
2021/07/14 07:42:19;;;;;;;95.13;89.53;;;;;;;;;;5061758;28;20476;-71
2021/07/14 07:44:46;;;;;;;102.13;96.43;;;;;;;;;;5042178;28;20478;-72
2021/07/14 07:47:16;;;;;;;112.83;106.63;;;;;;;;;;5049965;28;20471;-71
2021/07/14 07:49:45;;;;;;;101.77;96.37;;;;;;;;;;5044731;28;20449;-71
2021/07/14 07:52:13;;;;;;;97.47;91.80;;;;;;;;;;5047886;28;20451;-73
2021/07/14 07:54:40;;;;;;;110.60;104.50;;;;;;;;;;5051186;28;20452;-71
2021/07/14 07:57:07;;;;;;;105.20;99.10;;;;;;;;;;5045976;28;20465;-72
2021/07/14 07:59:35;;;;;;;114.83;108.53;;;;;;;;;;5035282;28;20448;-69
2021/07/14 08:02:02;;;;;;;123.27;116.80;;;;;;;;;;5053737;28;20483;-68
2021/07/14 08:04:30;;;;;;;125.90;119.10;;;;;;;;;;5045766;28;20461;-68
2021/07/14 08:06:57;;;;;;;125.07;118.13;;;;;;;;;;5051116;28;20827;-70
2021/07/14 08:09:25;;;;;;;137.37;130.27;;;;;;;;;;5044291;28;20465;-68
2021/07/14 08:11:52;;;;;;;135.43;127.93;;;;;;;;;;5049882;28;20539;-68
2021/07/14 08:14:19;;;;;;;129.93;123.07;;;;;;;;;;5053641;28;20448;-68
2021/07/14 08:16:46;;;;;;;139.47;132.27;;;;;;;;;;5056971;28;20473;-68
2021/07/14 08:19:13;;;;;;;143.83;136.53;;;;;;;;;;5052061;28;20978;-68
2021/07/14 08:21:42;;;;;;;160.07;151.87;;;;;;;;;;5054692;28;20452;-68
2021/07/14 08:24:09;;;;;;;160.77;152.50;;;;;;;;;;5039906;28;20503;-68
2021/07/14 08:26:36;;;;;;;161.97;153.90;;;;;;;;;;5047725;28;20478;-68
2021/07/14 08:29:03;;;;;;;143.63;136.33;;;;;;;;;;5053866;28;20474;-67
2021/07/14 08:31:30;;;;;;;132.93;126.13;;;;;;;;;;5051729;28;20452;-66
2021/07/14 08:33:58;;;;;;;122.03;115.73;;;;;;;;;;5047082;28;20451;-66
2021/07/14 08:36:25;;;;;;;128.33;121.73;;;;;;;;;;5054172;28;20490;-66
2021/07/14 08:38:54;;;;;;;123.73;117.27;;;;;;;;;;5054565;28;20458;-66
2021/07/14 08:41:22;;;;;;;100.33;94.73;;;;;;;;;;5054420;28;20466;-65
2021/07/14 08:43:49;;;;;;;124.70;118.40;;;;;;;;;;5036489;28;20480;-68
2021/07/14 08:46:17;;;;;;;140.60;133.40;;;;;;;;;;5051089;28;20471;-63
2021/07/14 08:48:46;;;;;;;119.50;113.17;;;;;;;;;;5055048;28;20444;-66
2021/07/14 08:51:15;;;;;;;112.97;106.77;;;;;;;;;;5054014;28;20448;-66
2021/07/14 08:53:42;;;;;;;112.93;106.93;;;;;;;;;;5054372;28;20458;-67
2021/07/14 08:56:10;;;;;;;129.20;122.67;;;;;;;;;;5051733;28;20835;-66
2021/07/14 08:58:37;;;;;;;107.80;102.00;;;;;;;;;;5054652;28;20455;-66
2021/07/14 09:01:04;;;;;;;141.63;134.63;;;;;;;;;;5053477;28;20452;-67
2021/07/14 09:03:32;;;;;;;129.83;123.30;;;;;;;;;;5052745;28;20506;-66
2021/07/14 09:05:59;;;;;;;111.50;105.40;;;;;;;;;;5052730;28;20465;-67
2021/07/14 09:08:26;;;;;;;99.43;93.97;;;;;;;;;;5054395;28;20541;-67
2021/07/14 09:10:54;;;;;;;91.70;86.50;;;;;;;;;;5053574;28;20455;-67
2021/07/14 09:13:33;;;;;;;95.90;90.70;;;;;;;;;;5053908;28;20444;-66
2021/07/14 09:16:00;;;;;;;78.67;73.97;;;;;;;;;;5054192;28;20436;-66
2021/07/14 09:18:28;;;;;;;84.10;79.50;;;;;;;;;;5037441;28;20943;-67
2021/07/14 09:20:55;;;;;;;82.53;77.67;;;;;;;;;;5042086;28;20498;-67
2021/07/14 09:23:25;;;;;;;81.27;76.60;;;;;;;;;;5052674;28;20490;-67
2021/07/14 09:25:54;;;;;;;98.80;93.50;;;;;;;;;;5053127;28;20490;-66
2021/07/14 09:28:24;;;;;;;99.93;94.53;;;;;;;;;;5052837;28;20443;-67
2021/07/14 09:30:56;;;;;;;94.13;89.03;;;;;;;;;;5035491;28;20449;-67
2021/07/14 09:33:23;;;;;;;83.83;79.13;;;;;;;;;;5034343;28;20427;-67
2021/07/14 09:35:51;;;;;;;86.90;82.20;;;;;;;;;;5046126;28;20797;-67
2021/07/14 09:38:20;;;;;;;82.73;78.13;;;;;;;;;;5052993;28;21187;-67
2021/07/14 09:40:49;;;;;;;86.20;81.47;;;;;;;;;;5053605;28;20494;-66
2021/07/14 09:43:17;;;;;;;74.50;70.20;;;;;;;;;;5054370;28;20574;-68
2021/07/14 09:45:49;;;;;;;80.07;75.67;;;;;;;;;;5052666;28;20814;-67
2021/07/14 09:48:18;;;;;;;70.30;66.20;;;;;;;;;;5053561;28;20451;-68
2021/07/14 09:50:47;;;;;;;77.10;72.60;;;;;;;;;;5052566;28;20538;-65
2021/07/14 09:53:19;;;;;;;64.80;60.90;;;;;;;;;;5053475;28;20458;-68
2021/07/14 09:55:46;;;;;;;60.27;56.57;;;;;;;;;;5049382;28;20440;-69
2021/07/14 09:58:14;;;;;;;60.47;56.67;;;;;;;;;;5053663;28;20443;-68
2021/07/14 10:00:42;;;;;;;63.30;59.40;;;;;;;;;;5034948;28;20456;-68
2021/07/14 10:03:11;;;;;;;58.17;54.57;;;;;;;;;;5037038;28;20859;-68
2021/07/14 10:05:38;;;;;;;60.20;56.90;;;;;;;;;;5033493;28;20801;-69
2021/07/14 10:08:18;;;;;;;61.40;57.70;;;;;;;;;;5033046;28;20467;-68
2021/07/14 10:10:45;;;;;;;58.17;54.67;;;;;;;;;;5035132;28;20439;-68
2021/07/14 10:13:12;;;;;;;61.03;57.43;;;;;;;;;;5036278;28;20449;-68
2021/07/14 10:15:40;;;;;;;59.37;55.87;;;;;;;;;;5047581;28;20466;-71
2021/07/14 10:18:12;;;;;;;54.30;51.20;;;;;;;;;;5053101;28;20559;-68
2021/07/14 10:20:43;;;;;;;53.27;50.17;;;;;;;;;;5052909;28;20443;-68
2021/07/14 10:23:11;;;;;;;46.00;43.20;;;;;;;;;;5052501;28;20573;-68
2021/07/14 10:25:39;;;;;;;44.70;42.10;;;;;;;;;;5053003;28;20455;-68
2021/07/14 10:28:07;;;;;;;40.07;37.77;;;;;;;;;;5052375;28;20478;-68
2021/07/14 10:30:34;;;;;;;43.60;40.90;;;;;;;;;;5053336;28;20443;-68
2021/07/14 10:33:01;;;;;;;43.83;41.23;;;;;;;;;;5052582;28;20448;-69
2021/07/14 10:35:31;;;;;;;37.33;35.03;;;;;;;;;;5051921;28;20452;-71
2021/07/14 10:37:59;;;;;;;34.80;32.50;;;;;;;;;;5073500;22;20727;-70
2021/07/14 10:40:26;;;;;;;33.60;31.50;;;;;;;;;;5049704;28;20478;-70
2021/07/14 10:42:54;;;;;;;34.67;32.50;;;;;;;;;;5052001;28;20483;-70
2021/07/14 10:45:21;;;;;;;33.53;31.57;;;;;;;;;;5052630;28;20447;-70
2021/07/14 10:47:50;;;;;;;29.60;27.90;;;;;;;;;;5034459;28;20472;-70
2021/07/14 10:50:18;;;;;;;30.43;28.53;;;;;;;;;;5032138;28;20452;-70
2021/07/14 10:52:47;;;;;;;30.30;28.50;;;;;;;;;;5032158;28;20447;-70
2021/07/14 10:55:17;;;;;;;30.00;28.20;;;;;;;;;;5031977;28;20455;-70
2021/07/14 10:57:44;;;;;;;28.20;26.50;;;;;;;;;;5050211;28;20840;-70
2021/07/14 11:00:12;;;;;;;31.00;29.20;;;;;;;;;;5051941;28;20443;-70
2021/07/14 11:02:40;;;;;;;28.57;26.87;;;;;;;;;;5052163;28;20451;-70
2021/07/14 11:05:08;;;;;;;28.50;26.80;;;;;;;;;;5051968;28;20442;-70
2021/07/14 11:07:36;;;;;;;27.53;25.93;;;;;;;;;;5033637;28;20545;-70
2021/07/14 11:10:18;;;;;;;29.43;27.60;;;;;;;;;;5052245;28;20447;-70
2021/07/14 11:12:46;;;;;;;29.77;28.07;;;;;;;;;;5051623;28;20942;-70
2021/07/14 11:15:13;;;;;;;27.37;25.87;;;;;;;;;;5051434;28;20454;-70
2021/07/14 11:17:40;;;;;;;29.80;28.10;;;;;;;;;;5049821;28;20470;-70
2021/07/14 11:20:09;;;;;;;28.47;26.77;;;;;;;;;;5051724;28;20457;-70
2021/07/14 11:22:41;;;;;;;28.80;27.00;;;;;;;;;;5051836;28;20481;-70
2021/07/14 11:25:09;;;;;;;27.23;25.50;;;;;;;;;;5051803;28;20451;-70
2021/07/14 11:27:54;;;;;;;33.77;31.37;;;;;;;;;;5051556;28;20462;-70
2021/07/14 11:30:25;;;;;;;33.57;31.47;;;;;;;;;;5051295;28;20447;-70
2021/07/14 11:32:56;;;;;;;32.40;30.40;;;;;;;;;;5051724;28;20431;-70
2021/07/14 11:35:26;;;;;;;32.80;30.67;;;;;;;;;;5051790;28;20455;-70
2021/07/14 11:37:57;;;;;;;31.90;30.00;;;;;;;;;;5050918;28;20479;-70
2021/07/14 11:40:40;;;;;;;30.83;29.03;;;;;;;;;;5051925;28;20447;-70
2021/07/14 11:43:26;;;;;;;31.10;29.30;;;;;;;;;;5051157;28;20532;-70
2021/07/14 11:45:56;;;;;;;31.40;29.50;;;;;;;;;;5051130;28;20436;-70
2021/07/14 11:48:27;;;;;;;32.57;30.67;;;;;;;;;;5051089;28;21007;-70
2021/07/14 11:50:56;;;;;;;31.20;29.37;;;;;;;;;;5050959;28;20462;-70
2021/07/14 11:53:47;;;;;;;33.33;31.23;;;;;;;;;;5051244;28;20462;-70
2021/07/14 11:56:17;;;;;;;31.77;29.93;;;;;;;;;;5031498;28;20451;-70
2021/07/14 11:58:52;;;;;;;31.90;29.90;;;;;;;;;;5051745;28;20803;-70
2021/07/14 12:01:38;;;;;;;31.70;29.83;;;;;;;;;;5050753;28;20439;-70
2021/07/14 12:04:10;;;;;;;31.30;29.40;;;;;;;;;;5033451;28;20574;-70
2021/07/14 12:06:38;;;;;;;32.73;30.60;;;;;;;;;;5031376;28;20441;-70
2021/07/14 12:09:06;;;;;;;30.50;28.70;;;;;;;;;;5031336;28;20834;-70
2021/07/14 12:11:34;;;;;;;31.87;29.97;;;;;;;;;;5035265;28;20458;-70
2021/07/14 12:14:01;;;;;;;29.63;27.93;;;;;;;;;;5051125;28;20451;-70
2021/07/14 12:16:28;;;;;;;29.10;27.50;;;;;;;;;;5050960;28;20451;-70
2021/07/14 12:18:56;;;;;;;31.50;29.70;;;;;;;;;;5050902;28;20808;-70
2021/07/14 12:21:34;;;;;;;31.90;29.97;;;;;;;;;;5050801;28;21096;-70
2021/07/14 12:24:01;;;;;;;30.73;28.83;;;;;;;;;;5051204;28;21115;-71
2021/07/14 12:26:28;;;;;;;30.60;28.70;;;;;;;;;;5051388;28;20448;-70
2021/07/14 12:28:55;;;;;;;32.27;30.17;;;;;;;;;;5050922;28;20486;-71
2021/07/14 12:31:24;;;;;;;30.30;28.20;;;;;;;;;;5050744;28;20451;-70
2021/07/14 12:33:52;;;;;;;31.33;29.43;;;;;;;;;;5032879;28;20871;-73
2021/07/14 12:36:19;;;;;;;30.07;28.27;;;;;;;;;;5030985;28;20463;-73
2021/07/14 12:38:54;;;;;;;29.23;27.50;;;;;;;;;;5031131;28;20481;-73
2021/07/14 12:41:24;;;;;;;34.77;32.50;;;;;;;;;;5030989;28;20433;-73
2021/07/14 12:44:01;;;;;;;34.93;32.83;;;;;;;;;;5049634;28;20479;-73
2021/07/14 12:46:28;;;;;;;35.90;33.70;;;;;;;;;;5050866;28;20452;-73
2021/07/14 12:49:08;;;;;;;35.80;33.50;;;;;;;;;;5050516;28;20481;-73
2021/07/14 12:51:35;;;;;;;36.30;34.10;;;;;;;;;;5050582;28;21021;-72
2021/07/14 12:54:04;;;;;;;37.10;34.70;;;;;;;;;;5050784;28;20454;-73
2021/07/14 12:56:31;;;;;;;38.53;36.07;;;;;;;;;;5050877;28;20453;-73
2021/07/14 12:59:01;;;;;;;37.37;34.77;;;;;;;;;;5052730;28;20469;-73
2021/07/14 13:01:28;;;;;;;36.23;33.93;;;;;;;;;;5054439;28;20447;-72
2021/07/14 13:03:56;;;;;;;38.20;35.80;;;;;;;;;;5053971;28;21020;-72
2021/07/14 13:06:23;;;;;;;45.07;42.00;;;;;;;;;;5053830;28;20458;-71
2021/07/14 13:08:51;;;;;;;49.10;45.90;;;;;;;;;;5055068;28;20468;-71
2021/07/14 13:11:20;;;;;;;51.03;47.97;;;;;;;;;;5054729;28;20452;-72
2021/07/14 13:13:48;;;;;;;53.70;50.50;;;;;;;;;;5055545;28;20813;-72
2021/07/14 13:16:24;;;;;;;57.97;54.47;;;;;;;;;;5055589;28;20558;-72
2021/07/14 13:18:53;;;;;;;60.80;57.03;;;;;;;;;;5054917;28;20464;-72
2021/07/14 13:21:24;;;;;;;57.87;54.47;;;;;;;;;;5054570;28;20454;-72
2021/07/14 13:23:51;;;;;;;56.57;53.33;;;;;;;;;;5055009;28;20494;-72
2021/07/14 13:26:23;;;;;;;58.43;55.03;;;;;;;;;;5055533;28;20459;-72
2021/07/14 13:28:50;;;;;;;58.53;55.23;;;;;;;;;;5035670;28;20482;-72
2021/07/14 13:31:22;;;;;;;64.77;60.87;;;;;;;;;;5047025;28;21024;-72
2021/07/14 13:33:56;;;;;;;57.53;53.83;;;;;;;;;;5053985;28;20448;-72
2021/07/14 13:36:26;;;;;;;55.70;52.10;;;;;;;;;;5053916;28;20444;-73
2021/07/14 13:38:56;;;;;;;48.60;45.50;;;;;;;;;;5053573;28;20998;-73
2021/07/14 13:41:25;;;;;;;51.90;48.80;;;;;;;;;;5053715;28;20455;-73
2021/07/14 13:43:55;;;;;;;59.33;55.77;;;;;;;;;;5053769;28;20494;-73
2021/07/14 13:46:22;;;;;;;56.10;52.50;;;;;;;;;;5053516;28;20452;-73
2021/07/14 13:49:10;;;;;;;57.47;54.17;;;;;;;;;;5053370;28;20546;-73
2021/07/14 13:51:39;;;;;;;60.37;56.67;;;;;;;;;;5047437;28;20825;-73
2021/07/14 13:54:24;;;;;;;59.27;55.60;;;;;;;;;;5053423;28;20432;-73
2021/07/14 13:56:53;;;;;;;67.87;63.67;;;;;;;;;;5053320;28;20953;-73
2021/07/14 13:59:21;;;;;;;59.47;55.70;;;;;;;;;;5034083;28;20461;-73
2021/07/14 14:02:02;;;;;;;56.80;53.30;;;;;;;;;;5035253;28;20457;-71
2021/07/14 14:04:30;;;;;;;60.47;56.77;;;;;;;;;;5035285;28;20491;-71
2021/07/14 14:06:58;;;;;;;83.80;79.10;;;;;;;;;;5042613;28;20826;-73
2021/07/14 14:09:25;;;;;;;79.70;75.00;;;;;;;;;;5053585;28;20464;-72
2021/07/14 14:11:54;;;;;;;90.77;85.63;;;;;;;;;;5053978;28;20452;-72
2021/07/14 14:14:21;;;;;;;77.10;72.70;;;;;;;;;;5054380;28;20444;-71
2021/07/14 14:16:48;;;;;;;79.43;74.80;;;;;;;;;;5054142;28;20459;-71
2021/07/14 14:19:17;;;;;;;73.67;69.27;;;;;;;;;;5054103;28;20466;-71
2021/07/14 14:21:52;;;;;;;73.50;69.30;;;;;;;;;;5052663;28;20807;-72
2021/07/14 14:24:19;;;;;;;74.37;69.97;;;;;;;;;;5054893;28;20507;-71
2021/07/14 14:26:50;;;;;;;87.77;82.50;;;;;;;;;;5054736;28;20456;-71
2021/07/14 14:29:19;;;;;;;104.07;98.47;;;;;;;;;;5054582;28;20467;-71